createdAt,value
2018-06-10T00:01:54.505Z,22.87
2018-06-10T00:04:24.521Z,18.32
2018-06-10T00:06:54.617Z,20.00
2018-06-10T00:09:24.688Z,20.63
2018-06-10T00:11:54.743Z,22.07
2018-06-10T00:14:24.375Z,22.35
2018-06-10T00:16:54.451Z,22.17
2018-06-10T00:19:24.453Z,21.40
2018-06-10T00:21:54.512Z,22.17
2018-06-10T00:24:24.580Z,22.07
2018-06-10T00:26:54.628Z,21.93
2018-06-10T00:29:24.663Z,21.27
2018-06-10T00:31:54.691Z,22.02
2018-06-10T00:34:24.889Z,21.75
2018-06-10T00:36:54.906Z,21.25
2018-06-10T00:39:24.907Z,21.30
2018-06-10T00:41:54.923Z,23.40
2018-06-10T00:44:24.940Z,22.40
2018-06-10T00:46:54.982Z,22.67
2018-06-10T00:49:25.024Z,23.12
2018-06-10T00:51:55.186Z,22.98
2018-06-10T00:54:25.264Z,21.90
2018-06-10T00:56:55.360Z,23.77
2018-06-10T00:59:25.795Z,24.67
2018-06-10T01:01:55.873Z,25.12
2018-06-10T01:04:25.994Z,23.83
2018-06-10T01:06:56.127Z,24.47
2018-06-10T01:09:26.174Z,23.60
2018-06-10T01:11:56.251Z,23.35
2018-06-10T01:14:26.304Z,24.55
2018-06-10T01:16:56.379Z,26.30
2018-06-10T01:19:26.428Z,28.55
2018-06-10T01:21:56.468Z,27.90
2018-06-10T01:24:26.509Z,26.25
2018-06-10T01:26:56.581Z,26.90
2018-06-10T01:29:26.588Z,28.42
2018-06-10T01:31:56.674Z,29.67
2018-06-10T01:34:26.752Z,29.55
2018-06-10T01:36:56.838Z,28.30
2018-06-10T01:39:26.868Z,26.77
2018-06-10T01:41:56.959Z,32.05
2018-06-10T01:44:27.308Z,29.67
2018-06-10T01:46:57.444Z,27.32
2018-06-10T01:49:27.531Z,26.23
2018-06-10T01:51:57.597Z,27.85
2018-06-10T01:54:27.651Z,25.17
2018-06-10T01:56:57.709Z,27.85
2018-06-10T01:59:27.800Z,26.90
2018-06-10T02:01:57.871Z,26.73
2018-06-10T02:04:27.990Z,27.98
2018-06-10T02:06:58.084Z,26.95
2018-06-10T02:09:28.128Z,28.55
2018-06-10T02:11:58.245Z,29.67
2018-06-10T02:14:28.290Z,30.12
2018-06-10T02:16:58.316Z,29.50
2018-06-10T02:19:28.487Z,29.98
2018-06-10T02:21:58.632Z,31.00
2018-06-10T02:24:28.751Z,30.90
2018-06-10T02:26:58.872Z,30.95
2018-06-10T02:29:28.993Z,31.48
2018-06-10T02:31:59.030Z,31.87
2018-06-10T02:34:29.056Z,30.80
2018-06-10T02:36:59.142Z,32.78
2018-06-10T02:39:29.189Z,30.30
2018-06-10T02:41:59.217Z,30.25
2018-06-10T02:44:29.316Z,30.93
2018-06-10T02:46:59.373Z,30.70
2018-06-10T02:49:29.489Z,29.77
2018-06-10T02:52:00.478Z,29.23
2018-06-10T02:54:30.191Z,29.02
2018-06-10T02:57:00.271Z,28.02
2018-06-10T02:59:30.340Z,28.57
2018-06-10T03:02:00.390Z,28.55
2018-06-10T03:04:30.429Z,28.67
2018-06-10T03:07:00.525Z,28.90
2018-06-10T03:09:30.636Z,29.02
2018-06-10T03:12:00.704Z,28.98
2018-06-10T03:14:30.812Z,28.40
2018-06-10T03:17:00.824Z,29.25
2018-06-10T03:19:31.268Z,29.65
2018-06-10T03:22:01.358Z,29.90
2018-06-10T03:24:31.399Z,30.48
2018-06-10T03:27:01.980Z,30.77
2018-06-10T03:29:32.061Z,30.95
2018-06-10T03:32:02.136Z,31.77
2018-06-10T03:34:32.193Z,30.02
2018-06-10T03:37:02.238Z,31.40
2018-06-10T03:39:32.309Z,31.02
2018-06-10T03:42:02.356Z,31.48
2018-06-10T03:44:32.460Z,31.37
2018-06-10T03:47:02.513Z,30.77
2018-06-10T03:49:32.588Z,32.65
2018-06-10T03:52:02.625Z,31.62
2018-06-10T03:54:32.709Z,32.47
2018-06-10T03:57:02.812Z,33.20
2018-06-10T03:59:32.882Z,32.93
2018-06-10T04:02:03.132Z,34.05
2018-06-10T04:04:33.193Z,33.80
2018-06-10T04:07:03.226Z,34.27
2018-06-10T04:09:33.328Z,32.73
2018-06-10T04:12:03.402Z,31.17
2018-06-10T04:14:33.468Z,30.33
2018-06-10T04:17:03.688Z,30.27
2018-06-10T04:19:33.799Z,30.68
2018-06-10T04:22:03.879Z,28.77
2018-06-10T04:24:33.929Z,27.25
2018-06-10T04:27:04.394Z,27.93
2018-06-10T04:29:34.503Z,27.87
2018-06-10T04:32:04.590Z,27.10
2018-06-10T04:34:34.652Z,26.07
2018-06-10T04:37:04.750Z,25.32
2018-06-10T04:39:35.301Z,26.23
2018-06-10T04:42:05.437Z,24.30
2018-06-10T04:44:35.505Z,24.47
2018-06-10T04:47:05.684Z,24.50
2018-06-10T04:49:35.726Z,23.65
2018-06-10T04:52:05.756Z,22.85
2018-06-10T04:54:35.848Z,22.05
2018-06-10T04:57:05.988Z,21.33
2018-06-10T04:59:36.070Z,21.12
2018-06-10T05:02:06.166Z,21.17
2018-06-10T05:04:36.231Z,20.68
2018-06-10T05:07:06.294Z,19.42
2018-06-10T05:09:36.431Z,19.00
2018-06-10T05:12:06.465Z,19.25
2018-06-10T05:14:36.505Z,18.07
2018-06-10T05:17:06.523Z,17.23
2018-06-10T05:19:37.359Z,17.40
2018-06-10T05:22:07.317Z,17.25
2018-06-10T05:24:37.402Z,16.27
2018-06-10T05:27:08.492Z,15.03
2018-06-10T05:29:38.539Z,15.37
2018-06-10T05:32:08.175Z,14.05
2018-06-10T05:34:38.284Z,14.00
2018-06-10T05:37:08.408Z,13.25
2018-06-10T05:39:38.492Z,13.48
2018-06-10T05:42:08.544Z,12.98
2018-06-10T05:44:38.245Z,13.38
2018-06-10T05:47:08.319Z,11.55
2018-06-10T05:49:38.367Z,12.90
2018-06-10T05:52:08.384Z,11.75
2018-06-10T05:54:38.464Z,12.63
2018-06-10T05:57:08.564Z,11.35
2018-06-10T05:59:38.613Z,11.00
2018-06-10T06:02:08.693Z,9.67
2018-06-10T06:04:38.678Z,10.40
2018-06-10T06:07:08.760Z,10.85
2018-06-10T06:09:38.779Z,12.65
2018-06-10T06:12:08.793Z,12.40
2018-06-10T06:14:38.751Z,11.30
2018-06-10T06:17:08.769Z,11.28
2018-06-10T06:19:38.774Z,11.40
2018-06-10T06:22:08.804Z,10.63
2018-06-10T06:24:39.333Z,10.38
2018-06-10T06:27:09.367Z,10.20
2018-06-10T06:29:39.375Z,9.70
2018-06-10T06:32:09.478Z,9.60
2018-06-10T06:34:39.555Z,9.67
2018-06-10T06:37:09.600Z,9.28
2018-06-10T06:39:39.680Z,9.78
2018-06-10T06:42:09.806Z,9.28
2018-06-10T06:44:39.826Z,9.05
2018-06-10T06:47:09.914Z,8.98
2018-06-10T06:49:39.923Z,8.63
2018-06-10T06:52:09.988Z,9.28
2018-06-10T06:54:40.248Z,9.90
2018-06-10T06:57:10.368Z,9.10
2018-06-10T06:59:41.361Z,8.60
2018-06-10T07:02:11.497Z,8.50
2018-06-10T07:04:41.532Z,9.05
2018-06-10T07:07:11.591Z,8.68
2018-06-10T07:09:41.591Z,9.38
2018-06-10T07:12:11.635Z,9.83
2018-06-10T07:14:41.292Z,9.85
2018-06-10T07:17:11.379Z,9.53
2018-06-10T07:19:41.446Z,10.03
2018-06-10T07:22:11.493Z,10.00
2018-06-10T07:24:41.536Z,9.60
2018-06-10T07:27:11.618Z,9.63
2018-06-10T07:29:41.708Z,9.80
2018-06-10T07:32:11.853Z,9.75
2018-06-10T07:34:41.916Z,10.05
2018-06-10T07:37:12.075Z,10.05
2018-06-10T07:39:42.040Z,9.73
2018-06-10T07:42:12.051Z,10.00
2018-06-10T07:44:42.035Z,9.00
2018-06-10T07:47:12.118Z,8.80
2018-06-10T07:49:42.433Z,9.17
2018-06-10T07:52:12.541Z,9.30
2018-06-10T07:54:42.515Z,8.63
2018-06-10T07:57:12.910Z,9.35
2018-06-10T07:59:42.969Z,8.65
2018-06-10T08:02:13.140Z,9.15
2018-06-10T08:04:43.227Z,8.48
2018-06-10T08:07:13.381Z,8.70
2018-06-10T08:09:43.354Z,8.35
2018-06-10T08:12:13.381Z,8.15
2018-06-10T08:14:43.389Z,8.08
2018-06-10T08:17:13.447Z,8.70
2018-06-10T08:19:43.452Z,9.15
2018-06-10T08:22:13.459Z,8.58
2018-06-10T08:24:43.531Z,8.53
2018-06-10T08:27:13.542Z,8.10
2018-06-10T08:29:43.599Z,8.18
2018-06-10T08:32:13.603Z,7.95
2018-06-10T08:34:43.578Z,8.40
2018-06-10T08:37:13.611Z,8.33
2018-06-10T08:39:43.595Z,8.15
2018-06-10T08:42:13.632Z,8.30
2018-06-10T08:44:43.646Z,8.33
2018-06-10T08:47:13.715Z,7.58
2018-06-10T08:49:43.728Z,8.33
2018-06-10T08:52:13.782Z,8.33
2018-06-10T08:54:44.098Z,8.68
2018-06-10T08:57:14.464Z,8.13
2018-06-10T08:59:44.480Z,8.10
2018-06-10T09:02:14.488Z,8.48
2018-06-10T09:04:44.487Z,8.18
2018-06-10T09:07:14.588Z,7.67
2018-06-10T09:09:45.735Z,8.73
2018-06-10T09:12:15.869Z,7.47
2018-06-10T09:14:45.928Z,8.18
2018-06-10T09:17:15.910Z,7.60
2018-06-10T09:19:45.940Z,8.00
2018-06-10T09:22:16.030Z,7.80
2018-06-10T09:24:46.090Z,7.93
2018-06-10T09:27:16.183Z,8.13
2018-06-10T09:29:46.232Z,8.47
2018-06-10T09:32:16.235Z,8.50
2018-06-10T09:34:46.754Z,8.50
2018-06-10T09:37:16.859Z,8.53
2018-06-10T09:39:47.000Z,8.68
2018-06-10T09:42:17.056Z,8.33
2018-06-10T09:44:47.124Z,7.85
2018-06-10T09:47:17.244Z,7.95
2018-06-10T09:49:47.437Z,7.85
2018-06-10T09:52:17.602Z,8.25
2018-06-10T09:54:47.986Z,8.43
2018-06-10T09:57:18.184Z,7.70
2018-06-10T09:59:48.394Z,8.05
2018-06-10T10:02:18.737Z,7.12
2018-06-10T10:04:49.101Z,7.45
2018-06-10T10:07:19.333Z,6.87
2018-06-10T10:09:49.762Z,7.22
2018-06-10T10:12:20.214Z,6.60
2018-06-10T10:14:50.366Z,6.05
2018-06-10T10:17:20.761Z,6.58
2018-06-10T10:19:50.863Z,6.50
2018-06-10T10:22:20.918Z,5.97
2018-06-10T10:24:50.458Z,6.47
2018-06-10T10:27:20.604Z,5.97
2018-06-10T10:29:50.858Z,5.80
2018-06-10T10:32:21.193Z,5.80
2018-06-10T10:34:51.279Z,5.72
2018-06-10T10:37:21.384Z,5.92
2018-06-10T10:39:51.418Z,5.60
2018-06-10T10:42:21.540Z,6.20
2018-06-10T10:44:51.642Z,5.33
2018-06-10T10:47:21.944Z,5.00
2018-06-10T10:49:51.973Z,6.03
2018-06-10T10:52:22.264Z,5.55
2018-06-10T10:54:53.410Z,5.97
2018-06-10T10:57:23.647Z,5.30
2018-06-10T10:59:53.736Z,5.80
2018-06-10T11:02:23.757Z,5.35
2018-06-10T11:04:53.781Z,5.60
2018-06-10T11:07:24.134Z,5.20
2018-06-10T11:09:54.205Z,5.50
2018-06-10T11:12:24.371Z,5.50
2018-06-10T11:14:54.729Z,5.40
2018-06-10T11:17:24.807Z,5.65
2018-06-10T11:19:54.836Z,5.10
2018-06-10T11:22:25.013Z,5.90
2018-06-10T11:24:55.058Z,5.92
2018-06-10T11:27:25.285Z,6.37
2018-06-10T11:29:55.332Z,7.10
2018-06-10T11:32:24.994Z,9.50
2018-06-10T11:34:55.468Z,6.53
2018-06-10T11:37:25.648Z,6.12
2018-06-10T11:39:55.719Z,6.55
2018-06-10T11:42:26.512Z,6.50
2018-06-10T11:44:56.533Z,6.25
2018-06-10T11:47:26.677Z,6.25
2018-06-10T11:49:56.764Z,6.60
2018-06-10T11:52:26.888Z,6.17
2018-06-10T11:54:57.132Z,6.47
2018-06-10T11:57:27.334Z,6.47
2018-06-10T11:59:57.401Z,6.45
2018-06-10T12:02:27.386Z,6.45
2018-06-10T12:04:57.429Z,6.67
2018-06-10T12:07:27.633Z,6.90
2018-06-10T12:09:57.833Z,6.35
2018-06-10T12:12:28.054Z,7.03
2018-06-10T12:14:58.359Z,7.40
2018-06-10T12:17:29.169Z,6.60
2018-06-10T12:19:59.242Z,7.08
2018-06-10T12:22:28.944Z,6.87
2018-06-10T12:24:58.745Z,6.90
2018-06-10T12:27:29.527Z,6.67
2018-06-10T12:29:59.748Z,6.33
2018-06-10T12:32:30.910Z,6.33
2018-06-10T12:35:00.959Z,6.83
2018-06-10T12:37:31.196Z,6.25
2018-06-10T12:40:01.249Z,6.50
2018-06-10T12:42:31.405Z,6.43
2018-06-10T12:45:01.541Z,6.37
2018-06-10T12:47:32.314Z,5.97
2018-06-10T12:50:02.379Z,6.12
2018-06-10T12:52:32.755Z,6.17
2018-06-10T12:55:02.925Z,6.47
2018-06-10T12:57:33.123Z,6.62
2018-06-10T13:00:03.260Z,6.97
2018-06-10T13:02:33.393Z,6.42
2018-06-10T13:05:03.434Z,6.30
2018-06-10T13:07:33.654Z,6.05
2018-06-10T13:10:03.809Z,6.55
2018-06-10T13:12:34.028Z,6.45
2018-06-10T13:15:04.067Z,5.60
2018-06-10T13:17:34.319Z,6.25
2018-06-10T13:20:04.122Z,6.50
2018-06-10T13:22:34.269Z,5.70
2018-06-10T13:25:04.776Z,5.50
2018-06-10T13:27:35.043Z,5.45
2018-06-10T13:30:05.916Z,5.47
2018-06-10T13:32:36.016Z,5.30
2018-06-10T13:35:06.216Z,6.05
2018-06-10T13:37:36.271Z,5.97
2018-06-10T13:40:06.474Z,5.45
2018-06-10T13:42:36.614Z,5.80
2018-06-10T13:45:06.673Z,5.75
2018-06-10T13:47:36.878Z,5.67
2018-06-10T13:50:07.077Z,5.37
2018-06-10T13:52:37.187Z,5.50
2018-06-10T13:55:07.297Z,5.15
2018-06-10T13:57:37.450Z,5.10
2018-06-10T14:00:07.742Z,5.70
2018-06-10T14:02:38.056Z,5.28
2018-06-10T14:05:08.141Z,6.30
2018-06-10T14:07:38.322Z,4.70
2018-06-10T14:10:08.029Z,4.47
2018-06-10T14:12:41.086Z,4.40
2018-06-10T14:15:11.379Z,4.58
2018-06-10T14:17:41.715Z,4.33
2018-06-10T14:20:12.009Z,4.85
2018-06-10T14:22:42.142Z,4.20
2018-06-10T14:25:12.345Z,4.80
2018-06-10T14:27:42.450Z,4.50
2018-06-10T14:30:12.781Z,3.80
2018-06-10T14:32:42.936Z,5.33
2018-06-10T14:35:13.151Z,5.25
2018-06-10T14:37:43.726Z,5.35
2018-06-10T14:40:14.021Z,4.90
2018-06-10T14:42:45.227Z,4.75
2018-06-10T14:45:15.389Z,4.50
2018-06-10T14:47:45.625Z,4.95
2018-06-10T14:50:15.777Z,4.37
2018-06-10T14:52:45.976Z,4.30
2018-06-10T14:55:16.198Z,4.47
2018-06-10T14:57:46.378Z,4.95
2018-06-10T15:00:16.588Z,4.70
2018-06-10T15:02:46.985Z,5.70
2018-06-10T15:05:17.124Z,5.05
2018-06-10T15:07:47.339Z,4.87
2018-06-10T15:10:17.449Z,5.12
2018-06-10T15:12:47.567Z,5.05
2018-06-10T15:15:17.700Z,4.50
2018-06-10T15:17:47.978Z,5.10
2018-06-10T15:20:18.046Z,4.53
2018-06-10T15:22:48.330Z,5.00
2018-06-10T15:25:18.774Z,4.40
2018-06-10T15:27:49.132Z,4.70
2018-06-10T15:30:19.396Z,5.77
2018-06-10T15:32:49.611Z,4.67
2018-06-10T15:35:19.928Z,4.85
2018-06-10T15:37:50.279Z,4.47
2018-06-10T15:40:20.558Z,4.40
2018-06-10T15:42:50.930Z,4.50
2018-06-10T15:45:21.122Z,4.50
2018-06-10T15:47:51.426Z,4.40
2018-06-10T15:50:21.739Z,4.50
2018-06-10T15:52:52.024Z,4.50
2018-06-10T15:55:22.398Z,4.20
2018-06-10T15:57:52.786Z,4.35
2018-06-10T16:00:23.133Z,5.15
2018-06-10T16:02:53.428Z,4.53
2018-06-10T16:05:24.710Z,4.47
2018-06-10T16:07:55.042Z,4.12
2018-06-10T16:10:25.978Z,4.78
2018-06-10T16:12:56.849Z,4.08
2018-06-10T16:15:27.070Z,4.58
2018-06-10T16:17:57.169Z,4.65
2018-06-10T16:20:30.196Z,4.25
2018-06-10T16:23:00.382Z,4.40
2018-06-10T16:25:30.589Z,4.15
2018-06-10T16:28:00.718Z,4.22
2018-06-10T16:30:30.767Z,4.70
2018-06-10T16:33:01.852Z,4.40
2018-06-10T16:35:32.116Z,4.80
2018-06-10T16:38:02.495Z,5.30
2018-06-10T16:40:32.653Z,4.40
2018-06-10T16:43:02.716Z,4.72
2018-06-10T16:45:32.802Z,4.53
2018-06-10T16:48:02.860Z,5.00
2018-06-10T16:50:32.972Z,4.42
2018-06-10T16:53:03.056Z,4.40
2018-06-10T16:55:33.163Z,4.80
2018-06-10T16:58:03.261Z,4.62
2018-06-10T17:00:33.425Z,4.25
2018-06-10T17:03:03.573Z,4.30
2018-06-10T17:05:33.704Z,4.87
2018-06-10T17:08:03.989Z,4.15
2018-06-10T17:10:34.079Z,4.40
2018-06-10T17:13:04.311Z,4.22
2018-06-10T17:15:34.481Z,4.03
2018-06-10T17:18:04.572Z,3.80
2018-06-10T17:20:34.702Z,6.03
2018-06-10T17:23:04.882Z,4.10
2018-06-10T17:25:35.005Z,4.58
2018-06-10T17:28:05.201Z,4.00
2018-06-10T17:30:35.325Z,4.20
2018-06-10T17:33:05.407Z,4.03
2018-06-10T17:35:35.112Z,4.30
2018-06-10T17:38:05.302Z,5.80
2018-06-10T17:40:35.431Z,5.35
2018-06-10T17:43:05.557Z,4.20
2018-06-10T17:45:35.669Z,4.10
2018-06-10T17:48:05.725Z,4.03
2018-06-10T17:50:35.922Z,3.83
2018-06-10T17:53:06.195Z,4.30
2018-06-10T17:55:36.299Z,4.00
2018-06-10T17:58:06.691Z,4.28
2018-06-10T18:00:36.865Z,4.10
2018-06-10T18:03:07.554Z,4.05
2018-06-10T18:05:38.818Z,3.97
2018-06-10T18:08:09.048Z,4.12
2018-06-10T18:10:39.293Z,4.20
2018-06-10T18:13:09.782Z,4.05
2018-06-10T18:15:39.909Z,4.35
2018-06-10T18:18:10.145Z,4.45
2018-06-10T18:20:40.228Z,4.47
2018-06-10T18:23:10.265Z,4.45
2018-06-10T18:25:40.331Z,4.37
2018-06-10T18:28:10.467Z,4.72
2018-06-10T18:30:40.697Z,4.12
2018-06-10T18:33:11.000Z,4.65
2018-06-10T18:35:41.270Z,4.70
2018-06-10T18:38:11.358Z,4.50
2018-06-10T18:40:41.527Z,4.75
2018-06-10T18:43:11.905Z,4.70
2018-06-10T18:45:42.069Z,4.62
2018-06-10T18:48:12.201Z,4.78
2018-06-10T18:50:42.455Z,4.80
2018-06-10T18:53:13.463Z,5.20
2018-06-10T18:55:43.747Z,5.22
2018-06-10T18:58:14.539Z,5.72
2018-06-10T19:00:44.704Z,5.70
2018-06-10T19:03:14.928Z,6.37
2018-06-10T19:05:45.091Z,6.87
2018-06-10T19:08:15.204Z,5.55
2018-06-10T19:10:45.466Z,5.75
2018-06-10T19:13:15.689Z,5.83
2018-06-10T19:15:45.940Z,5.45
2018-06-10T19:18:16.038Z,5.47
2018-06-10T19:20:46.264Z,5.70
2018-06-10T19:23:16.654Z,5.80
2018-06-10T19:25:46.440Z,5.45
2018-06-10T19:28:16.578Z,5.55
2018-06-10T19:30:46.771Z,5.25
2018-06-10T19:33:16.903Z,6.33
2018-06-10T19:35:47.081Z,5.40
2018-06-10T19:38:17.346Z,5.47
2018-06-10T19:40:47.562Z,6.20
2018-06-10T19:43:17.840Z,7.60
2018-06-10T19:45:48.102Z,5.80
2018-06-10T19:48:18.302Z,5.72
2018-06-10T19:50:49.535Z,5.83
2018-06-10T19:53:19.653Z,6.47
2018-06-10T19:55:49.893Z,6.10
2018-06-10T19:58:20.151Z,6.30
2018-06-10T20:00:50.354Z,5.97
2018-06-10T20:03:20.708Z,6.03
2018-06-10T20:05:51.001Z,6.40
2018-06-10T20:08:21.113Z,6.45
2018-06-10T20:10:51.421Z,6.40
2018-06-10T20:13:21.689Z,6.30
2018-06-10T20:15:51.885Z,6.58
2018-06-10T20:18:21.622Z,6.62
2018-06-10T20:20:52.093Z,6.25
2018-06-10T20:23:22.265Z,5.60
2018-06-10T20:25:52.534Z,7.37
2018-06-10T20:28:22.722Z,6.05
2018-06-10T20:30:52.837Z,6.55
2018-06-10T20:33:23.127Z,6.15
2018-06-10T20:35:53.339Z,6.10
2018-06-10T20:38:23.491Z,6.17
2018-06-10T20:40:53.952Z,6.47
2018-06-10T20:43:24.132Z,6.15
2018-06-10T20:45:54.540Z,6.47
2018-06-10T20:48:24.848Z,5.70
2018-06-10T20:50:55.740Z,6.30
2018-06-10T20:53:25.932Z,6.20
2018-06-10T20:55:56.080Z,6.23
2018-06-10T20:58:26.304Z,5.92
2018-06-10T21:00:56.404Z,6.50
2018-06-10T21:03:26.763Z,6.62
2018-06-10T21:05:56.855Z,5.90
2018-06-10T21:08:26.959Z,6.30
2018-06-10T21:10:56.971Z,6.33
2018-06-10T21:13:27.016Z,6.60
2018-06-10T21:15:57.280Z,6.03
2018-06-10T21:18:27.521Z,6.30
2018-06-10T21:20:57.493Z,5.67
2018-06-10T21:23:27.480Z,6.70
2018-06-10T21:25:57.462Z,6.40
2018-06-10T21:28:27.470Z,6.53
2018-06-10T21:30:57.698Z,6.45
2018-06-10T21:33:27.721Z,6.70
2018-06-10T21:35:57.724Z,7.00
2018-06-10T21:38:27.766Z,6.90
2018-06-10T21:40:58.017Z,7.10
2018-06-10T21:43:28.060Z,6.85
2018-06-10T21:45:58.087Z,6.62
2018-06-10T21:48:28.114Z,5.80
2018-06-10T21:50:58.120Z,6.80
2018-06-10T21:53:28.183Z,6.40
2018-06-10T21:55:58.240Z,6.10
2018-06-10T21:58:28.419Z,6.10
2018-06-10T22:00:59.068Z,6.62
2018-06-10T22:03:29.484Z,5.80
2018-06-10T22:05:59.508Z,5.78
2018-06-10T22:08:29.730Z,5.78
2018-06-10T22:10:59.716Z,5.53
2018-06-10T22:13:29.824Z,5.70
2018-06-10T22:15:59.923Z,5.63
2018-06-10T22:18:29.986Z,5.17
2018-06-10T22:21:00.037Z,5.75
2018-06-10T22:23:30.084Z,5.80
2018-06-10T22:26:00.077Z,5.20
2018-06-10T22:28:30.115Z,5.40
2018-06-10T22:31:00.134Z,5.55
2018-06-10T22:33:30.236Z,6.12
2018-06-10T22:36:00.288Z,6.33
2018-06-10T22:38:30.380Z,5.73
2018-06-10T22:41:00.402Z,5.72
2018-06-10T22:43:30.420Z,5.75
2018-06-10T22:46:00.432Z,6.17
2018-06-10T22:48:30.483Z,6.53
2018-06-10T22:51:00.492Z,6.08
2018-06-10T22:55:39.672Z,6.35
2018-06-10T22:58:09.743Z,6.50
2018-06-10T23:00:39.805Z,6.37
2018-06-10T23:03:09.966Z,6.47
2018-06-10T23:05:39.964Z,6.62
2018-06-10T23:08:09.980Z,6.87
2018-06-10T23:10:39.974Z,6.30
2018-06-10T23:13:10.049Z,6.58
2018-06-10T23:15:40.089Z,6.37
2018-06-10T23:18:10.098Z,6.35
2018-06-10T23:20:40.125Z,7.12
2018-06-10T23:23:10.128Z,6.60
2018-06-10T23:25:40.160Z,6.90
2018-06-10T23:28:10.258Z,6.90
2018-06-10T23:30:40.316Z,7.08
2018-06-10T23:33:10.376Z,7.50
2018-06-10T23:35:40.395Z,7.85
2018-06-10T23:38:10.414Z,7.80
2018-06-10T23:40:40.450Z,7.75
2018-06-10T23:43:10.499Z,9.83
2018-06-10T23:45:40.515Z,7.35
2018-06-10T23:48:10.536Z,7.45
2018-06-10T23:50:40.558Z,7.15
2018-06-10T23:53:10.637Z,8.00
2018-06-10T23:55:40.681Z,7.95
2018-06-10T23:58:10.893Z,8.28
